Harbour Breton, Canada
Current Conditions -  °F | °C
As of 7:00 PM on Tuesday 21 Oct 2014 (Local Time) from LFVP Reporting Station
Scattered Clouds Scattered Clouds  
Wind Chill: 43°   Ceiling: Unl
Heat Index: 48°   Visibility: 6mi
Dew Point: 39°   Wind: 12mph
Humidity: 71%   Direction: 270°W
Pressure: 30.18"   Gusts: NA
Location:  47.48°N, 55.83°W
Report Text: LFVP 212100Z 27010KT 9999 SCT033 SCT230 09/04 Q1022 NOSIG
Loading
Personal Weather Stations






























Interactive Weather Map
Tropical Storm Tracking
New forecast layout! Learn more

10-Day Weather Forecast

Advertisements
Track Severe Weather on mobile